createdAt,value
2022-12-16T00:02:06.614Z,100900.22
2022-12-16T00:04:33.451Z,100913.88
2022-12-16T00:07:00.348Z,100896.66
2022-12-16T00:09:27.313Z,100893.91
2022-12-16T00:11:54.222Z,100889.00
2022-12-16T00:14:21.529Z,100881.34
2022-12-16T00:16:48.665Z,100881.59
2022-12-16T00:19:15.506Z,100872.28
2022-12-16T00:21:42.456Z,100875.84
2022-12-16T00:24:09.329Z,100869.28
2022-12-16T00:26:36.203Z,100876.09
2022-12-16T00:29:05.614Z,100870.81
2022-12-16T00:31:32.599Z,100882.72
2022-12-16T00:33:59.719Z,100855.78
2022-12-16T00:36:26.616Z,100853.72
2022-12-16T00:38:53.760Z,100860.72
2022-12-16T00:41:20.676Z,100858.13
2022-12-16T00:43:47.890Z,100843.81
2022-12-16T00:46:14.902Z,100841.50
2022-12-16T00:48:41.736Z,100836.59
2022-12-16T00:51:08.630Z,100836.84
2022-12-16T00:53:36.226Z,100827.88
2022-12-16T00:56:09.350Z,100830.59
2022-12-16T00:58:37.540Z,100828.69
2022-12-16T01:01:08.078Z,100831.59
2022-12-16T01:03:36.469Z,100829.31
2022-12-16T01:06:11.526Z,100816.66
2022-12-16T01:08:40.037Z,100822.63
2022-12-16T01:11:10.341Z,100810.16
2022-12-16T01:13:37.266Z,100820.22
2022-12-16T01:16:04.441Z,100823.41
2022-12-16T01:18:31.891Z,100812.44
2022-12-16T01:21:06.896Z,100815.75
2022-12-16T01:23:34.785Z,100821.91
2022-12-16T01:26:02.735Z,100818.50
2022-12-16T01:28:30.322Z,100810.50
2022-12-16T01:31:01.736Z,100812.50
2022-12-16T01:33:31.336Z,100815.13
2022-12-16T01:36:03.648Z,100817.25
2022-12-16T01:38:30.925Z,100823.28
2022-12-16T01:40:58.178Z,100827.06
2022-12-16T01:43:29.902Z,100825.28
2022-12-16T01:46:02.233Z,100828.69
2022-12-16T01:49:04.109Z,100831.88
2022-12-16T01:51:35.853Z,100838.31
2022-12-16T01:54:12.614Z,100835.28
2022-12-16T01:56:44.846Z,100818.78
2022-12-16T01:59:14.243Z,100831.19
2022-12-16T02:01:41.827Z,100830.06
2022-12-16T02:04:09.316Z,100829.94
2022-12-16T02:06:36.157Z,100824.63
2022-12-16T02:09:07.951Z,100822.38
2022-12-16T02:11:43.576Z,100820.16
2022-12-16T02:14:23.525Z,100830.34
2022-12-16T02:17:06.400Z,100825.38
2022-12-16T02:20:07.974Z,100814.06
2022-12-16T02:22:43.451Z,100803.13
2022-12-16T02:25:28.868Z,100801.66
2022-12-16T02:28:10.162Z,100802.84
2022-12-16T02:30:52.635Z,100806.53
2022-12-16T02:33:46.486Z,100805.59
2022-12-16T02:36:26.598Z,100810.81
2022-12-16T02:39:05.388Z,100800.34
2022-12-16T02:41:51.879Z,100807.91
2022-12-16T02:44:20.032Z,100810.94
2022-12-16T02:46:55.774Z,100812.50
2022-12-16T02:49:22.509Z,100809.69
2022-12-16T02:51:49.886Z,100812.03
2022-12-16T02:54:18.108Z,100802.13
2022-12-16T02:57:03.716Z,100813.56
2022-12-16T02:59:43.657Z,100810.22
2022-12-16T03:02:19.762Z,100820.78
2022-12-16T03:05:02.816Z,100818.56
2022-12-16T03:07:33.128Z,100816.75
2022-12-16T03:10:01.741Z,100816.03
2022-12-16T03:12:28.779Z,100807.88
2022-12-16T03:27:26.554Z,100809.97
2022-12-16T03:30:06.785Z,100793.97
2022-12-16T03:33:04.914Z,100797.88
2022-12-16T03:35:51.686Z,100798.16
2022-12-16T03:38:21.868Z,100798.59
2022-12-16T03:40:50.239Z,100784.72
2022-12-16T03:43:17.452Z,100790.53
2022-12-16T03:45:46.469Z,100788.16
2022-12-16T03:48:14.932Z,100774.59
2022-12-16T03:50:41.940Z,100777.03
2022-12-16T03:53:08.982Z,100781.63
2022-12-16T03:55:35.958Z,100772.66
2022-12-16T03:58:02.882Z,100767.94
2022-12-16T04:00:30.094Z,100758.13
2022-12-16T04:02:57.227Z,100767.53
2022-12-16T04:05:24.195Z,100779.25
2022-12-16T04:07:51.321Z,100775.38
2022-12-16T04:10:38.245Z,100781.78
2022-12-16T04:13:23.837Z,100776.59
2022-12-16T04:16:09.540Z,100763.81
2022-12-16T04:18:54.918Z,100770.53
2022-12-16T04:21:40.478Z,100782.47
2022-12-16T04:24:19.363Z,100780.94
2022-12-16T04:27:15.026Z,100783.19
2022-12-16T04:30:01.855Z,100800.09
2022-12-16T04:32:53.024Z,100797.47
2022-12-16T04:35:38.813Z,100805.63
2022-12-16T04:38:24.683Z,100801.41
2022-12-16T04:41:10.261Z,100805.91
2022-12-16T04:43:55.806Z,100782.63
2022-12-16T04:46:41.307Z,100799.66
2022-12-16T04:49:28.399Z,100798.75
2022-12-16T04:52:13.781Z,100801.69
2022-12-16T04:54:59.030Z,100789.13
2022-12-16T04:57:44.667Z,100787.72
2022-12-16T05:00:30.493Z,100792.81
2022-12-16T05:03:16.631Z,100799.16
2022-12-16T05:06:02.351Z,100798.63
2022-12-16T05:08:47.778Z,100802.19
2022-12-16T05:11:33.252Z,100804.84
2022-12-16T05:14:18.793Z,100802.75
2022-12-16T05:17:04.052Z,100811.47
2022-12-16T05:19:49.736Z,100803.31
2022-12-16T05:22:34.896Z,100802.75
2022-12-16T05:25:20.260Z,100796.56
2022-12-16T05:28:09.804Z,100801.16
2022-12-16T05:30:55.507Z,100797.06
2022-12-16T05:33:41.904Z,100802.75
2022-12-16T05:36:28.272Z,100796.25
2022-12-16T05:39:13.905Z,100800.44
2022-12-16T05:41:59.477Z,100802.50
2022-12-16T05:44:44.998Z,100813.53
2022-12-16T05:47:30.327Z,100822.19
2022-12-16T05:50:16.069Z,100808.09
2022-12-16T05:53:12.679Z,100809.34
2022-12-16T05:55:58.847Z,100808.50
2022-12-16T05:58:44.651Z,100809.78
2022-12-16T06:01:30.782Z,100799.69
2022-12-16T06:04:18.048Z,100805.03
2022-12-16T06:07:04.065Z,100809.97
2022-12-16T06:09:54.675Z,100805.09
2022-12-16T06:12:41.868Z,100806.28
2022-12-16T06:15:27.842Z,100822.47
2022-12-16T06:18:13.452Z,100812.38
2022-12-16T06:20:59.063Z,100818.56
2022-12-16T06:23:44.408Z,100814.56
2022-12-16T06:26:30.479Z,100807.81
2022-12-16T06:29:16.173Z,100809.88
2022-12-16T06:32:01.990Z,100813.34
2022-12-16T06:34:47.511Z,100805.97
2022-12-16T06:37:33.004Z,100806.66
2022-12-16T06:40:18.347Z,100813.22
2022-12-16T06:43:03.787Z,100811.16
2022-12-16T06:45:49.269Z,100816.56
2022-12-16T06:48:34.531Z,100812.66
2022-12-16T06:51:19.788Z,100815.94
2022-12-16T06:54:05.384Z,100812.66
2022-12-16T06:56:50.583Z,100824.03
2022-12-16T06:59:36.239Z,100820.69
2022-12-16T07:02:22.115Z,100823.50
2022-12-16T07:05:07.461Z,100809.53
2022-12-16T07:07:53.161Z,100819.63
2022-12-16T07:10:38.876Z,100824.91
2022-12-16T07:13:24.613Z,100816.00
2022-12-16T07:16:10.361Z,100808.09
2022-12-16T07:18:55.533Z,100795.41
2022-12-16T07:21:40.973Z,100805.34
2022-12-16T07:24:26.832Z,100802.09
2022-12-16T07:27:12.755Z,100799.16
2022-12-16T07:30:11.637Z,100800.31
2022-12-16T07:32:57.334Z,100799.09
2022-12-16T07:35:42.911Z,100792.13
2022-12-16T07:38:28.478Z,100791.13
2022-12-16T07:41:14.093Z,100801.19
2022-12-16T07:43:59.783Z,100797.50
2022-12-16T07:46:45.500Z,100800.72
2022-12-16T07:49:31.252Z,100802.34
2022-12-16T07:52:16.822Z,100795.38
2022-12-16T07:55:02.712Z,100793.91
2022-12-16T07:57:48.166Z,100800.13
2022-12-16T08:00:47.453Z,100791.22
2022-12-16T08:03:33.319Z,100792.22
2022-12-16T08:06:19.017Z,100799.19
2022-12-16T08:09:04.325Z,100783.09
2022-12-16T08:11:49.860Z,100775.63
2022-12-16T08:14:55.107Z,100787.63
2022-12-16T08:17:41.568Z,100789.25
2022-12-16T08:20:27.329Z,100784.22
2022-12-16T08:23:12.797Z,100785.06
2022-12-16T08:25:58.429Z,100790.19
2022-12-16T08:28:43.811Z,100782.38
2022-12-16T08:31:29.592Z,100782.34
2022-12-16T08:34:15.142Z,100773.09
2022-12-16T08:37:00.734Z,100770.16
2022-12-16T08:39:51.321Z,100762.66
2022-12-16T08:42:49.991Z,100766.91
2022-12-16T08:45:35.846Z,100763.00
2022-12-16T08:48:21.603Z,100759.28
2022-12-16T08:51:06.919Z,100757.16
2022-12-16T08:53:52.887Z,100759.44
2022-12-16T08:56:38.432Z,100752.31
2022-12-16T08:59:23.934Z,100752.81
2022-12-16T09:02:10.701Z,100749.75
2022-12-16T09:04:56.274Z,100754.09
2022-12-16T09:07:41.861Z,100747.59
2022-12-16T09:10:27.003Z,100739.16
2022-12-16T09:13:12.468Z,100733.63
2022-12-16T09:15:58.144Z,100733.31
2022-12-16T09:18:50.999Z,100734.44
2022-12-16T09:21:36.368Z,100739.16
2022-12-16T09:24:22.044Z,100727.59
2022-12-16T09:27:07.625Z,100717.16
2022-12-16T09:29:54.205Z,100714.66
2022-12-16T09:32:41.271Z,100706.47
2022-12-16T09:35:27.074Z,100704.16
2022-12-16T09:38:12.699Z,100703.50
2022-12-16T09:40:59.908Z,100706.06
2022-12-16T09:44:12.824Z,100703.28
2022-12-16T09:47:10.414Z,100698.22
2022-12-16T09:50:01.610Z,100696.91
2022-12-16T09:52:48.968Z,100671.66
2022-12-16T09:55:55.150Z,100662.13
2022-12-16T09:58:43.827Z,100654.97
2022-12-16T10:01:31.759Z,100651.94
2022-12-16T10:04:17.650Z,100665.19
2022-12-16T10:07:07.616Z,100663.53
2022-12-16T10:10:08.480Z,100659.34
2022-12-16T10:13:02.847Z,100648.44
2022-12-16T10:15:51.257Z,100641.75
2022-12-16T10:18:55.860Z,100647.53
2022-12-16T10:21:49.130Z,100635.50
2022-12-16T10:24:37.281Z,100644.63
2022-12-16T10:27:35.340Z,100630.53
2022-12-16T10:30:21.700Z,100635.75
2022-12-16T10:33:09.086Z,100626.59
2022-12-16T10:36:02.854Z,100619.34
2022-12-16T10:38:59.027Z,100600.09
2022-12-16T10:41:50.844Z,100597.13
2022-12-16T10:44:41.853Z,100598.88
2022-12-16T10:47:29.300Z,100593.00
2022-12-16T10:50:15.849Z,100590.91
2022-12-16T10:53:12.755Z,100599.81
2022-12-16T10:56:35.039Z,100594.47
2022-12-16T10:59:25.440Z,100592.81
2022-12-16T11:02:36.362Z,100578.88
2022-12-16T11:05:41.688Z,100587.06
2022-12-16T11:08:52.123Z,100577.25
2022-12-16T11:11:44.895Z,100579.41
2022-12-16T11:14:59.475Z,100580.84
2022-12-16T11:17:52.628Z,100567.84
2022-12-16T11:20:44.696Z,100581.03
2022-12-16T11:23:36.758Z,100585.06
2022-12-16T11:26:29.383Z,100580.66
2022-12-16T11:29:31.031Z,100572.84
2022-12-16T11:32:25.364Z,100579.72
2022-12-16T11:35:17.715Z,100574.38
2022-12-16T11:38:04.700Z,100574.50
2022-12-16T11:40:50.463Z,100581.81
2022-12-16T11:43:38.926Z,100563.28
2022-12-16T11:46:30.616Z,100544.47
2022-12-16T11:49:25.773Z,100543.75
2022-12-16T11:52:36.505Z,100544.56
2022-12-16T11:56:03.662Z,100546.84
2022-12-16T11:58:58.773Z,100546.50
2022-12-16T12:01:50.032Z,100545.13
2022-12-16T12:04:37.137Z,100546.91
2022-12-16T12:07:44.940Z,100536.19
2022-12-16T12:10:58.894Z,100543.44
2022-12-16T12:14:05.444Z,100544.78
2022-12-16T12:17:04.641Z,100548.66
2022-12-16T12:20:10.883Z,100542.69
2022-12-16T12:22:58.324Z,100536.88
2022-12-16T12:25:57.176Z,100536.81
2022-12-16T12:28:58.648Z,100541.38
2022-12-16T12:32:12.327Z,100536.00
2022-12-16T12:35:29.451Z,100535.28
2022-12-16T12:38:27.896Z,100537.69
2022-12-16T12:41:21.394Z,100538.69
2022-12-16T12:44:36.938Z,100537.09
2022-12-16T12:47:35.459Z,100548.19
2022-12-16T12:50:31.951Z,100555.16
2022-12-16T12:53:52.464Z,100554.25
2022-12-16T12:56:50.227Z,100545.28
2022-12-16T12:59:50.567Z,100535.03
2022-12-16T13:02:42.909Z,100537.69
2022-12-16T13:05:34.070Z,100537.81
2022-12-16T13:09:04.628Z,100538.75
2022-12-16T13:11:50.053Z,100544.78
2022-12-16T13:14:50.520Z,100549.66
2022-12-16T13:17:41.672Z,100554.56
2022-12-16T13:20:51.925Z,100548.69
2022-12-16T13:23:46.567Z,100559.13
2022-12-16T13:26:34.696Z,100554.50
2022-12-16T13:29:38.106Z,100562.75
2022-12-16T13:32:36.251Z,100572.47
2022-12-16T13:35:36.251Z,100566.41
2022-12-16T13:38:36.863Z,100564.25
2022-12-16T13:41:57.207Z,100568.25
2022-12-16T13:45:00.861Z,100572.72
2022-12-16T13:47:50.842Z,100559.72
2022-12-16T13:51:00.243Z,100552.66
2022-12-16T13:53:59.351Z,100559.97
2022-12-16T13:56:52.544Z,100576.72
2022-12-16T14:00:03.184Z,100584.53
2022-12-16T14:03:01.219Z,100581.59
2022-12-16T14:05:50.022Z,100587.84
2022-12-16T14:08:42.577Z,100584.63
2022-12-16T14:12:14.180Z,100586.50
2022-12-16T14:15:07.239Z,100585.13
2022-12-16T14:18:00.883Z,100583.41
2022-12-16T14:20:53.794Z,100570.03
2022-12-16T14:24:03.579Z,100575.75
2022-12-16T14:26:49.515Z,100573.06
2022-12-16T14:29:46.788Z,100572.25
2022-12-16T14:32:45.197Z,100579.63
2022-12-16T14:35:34.291Z,100580.34
2022-12-16T14:38:53.926Z,100586.59
2022-12-16T14:41:44.141Z,100582.91
2022-12-16T14:44:56.047Z,100590.34
2022-12-16T14:47:42.891Z,100596.81
2022-12-16T14:50:45.663Z,100597.44
2022-12-16T14:53:43.480Z,100605.28
2022-12-16T14:56:36.575Z,100604.72
2022-12-16T14:59:36.286Z,100608.41
2022-12-16T15:02:46.070Z,100614.69
2022-12-16T15:05:32.495Z,100606.59
2022-12-16T15:08:19.047Z,100593.50
2022-12-16T15:11:05.275Z,100590.53
2022-12-16T15:13:54.311Z,100599.81
2022-12-16T15:29:54.088Z,100593.41
2022-12-16T15:32:45.576Z,100602.06
2022-12-16T15:36:15.388Z,100595.69
2022-12-16T15:39:00.651Z,100586.88
2022-12-16T15:41:50.569Z,100593.16
2022-12-16T15:44:41.906Z,100598.94
2022-12-16T15:47:55.491Z,100606.94
2022-12-16T15:50:45.488Z,100602.66
2022-12-16T15:53:46.717Z,100606.56
2022-12-16T15:56:41.326Z,100611.44
2022-12-16T15:59:34.384Z,100609.59
2022-12-16T16:02:26.686Z,100606.09
2022-12-16T16:05:12.728Z,100599.16
2022-12-16T16:08:03.478Z,100597.19
2022-12-16T16:10:49.874Z,100598.81
2022-12-16T16:13:35.746Z,100615.28
2022-12-16T16:16:22.213Z,100599.66
2022-12-16T16:19:07.580Z,100605.78
2022-12-16T16:21:52.899Z,100605.53
2022-12-16T16:24:38.587Z,100612.81
2022-12-16T16:27:29.586Z,100617.78
2022-12-16T16:30:15.849Z,100616.53
2022-12-16T16:33:01.542Z,100615.72
2022-12-16T16:35:47.635Z,100612.13
2022-12-16T16:38:33.160Z,100625.41
2022-12-16T16:41:21.227Z,100622.53
2022-12-16T16:44:07.422Z,100615.00
2022-12-16T16:47:00.474Z,100612.59
2022-12-16T16:49:56.250Z,100619.31
2022-12-16T16:52:43.584Z,100619.75
2022-12-16T16:55:34.747Z,100609.84
2022-12-16T16:58:25.110Z,100608.19
2022-12-16T17:01:10.826Z,100608.44
2022-12-16T17:03:56.191Z,100616.53
2022-12-16T17:06:41.759Z,100614.47
2022-12-16T17:09:27.449Z,100623.94
2022-12-16T17:12:13.257Z,100624.28
2022-12-16T17:14:58.697Z,100627.63
2022-12-16T17:17:44.295Z,100629.13
2022-12-16T17:20:34.541Z,100626.69
2022-12-16T17:23:20.211Z,100628.88
2022-12-16T17:26:05.643Z,100628.88
2022-12-16T17:28:50.957Z,100616.50
2022-12-16T17:31:36.690Z,100603.91
2022-12-16T17:34:21.941Z,100622.72
2022-12-16T17:37:07.805Z,100613.47
2022-12-16T17:39:53.415Z,100605.81
2022-12-16T17:42:43.216Z,100616.31
2022-12-16T17:45:31.898Z,100607.34
2022-12-16T17:48:17.199Z,100615.28
2022-12-16T17:51:02.621Z,100616.31
2022-12-16T17:53:51.717Z,100612.63
2022-12-16T17:56:40.080Z,100614.75
2022-12-16T17:59:25.615Z,100616.81
2022-12-16T18:02:11.235Z,100613.09
2022-12-16T18:04:56.764Z,100611.22
2022-12-16T18:07:42.102Z,100615.25
2022-12-16T18:10:27.841Z,100624.41
2022-12-16T18:13:15.085Z,100620.00
2022-12-16T18:16:00.637Z,100618.97
2022-12-16T18:18:46.528Z,100618.03
2022-12-16T18:21:32.952Z,100621.38
2022-12-16T18:24:18.630Z,100617.31
2022-12-16T18:27:04.255Z,100603.00
2022-12-16T18:29:49.462Z,100613.16
2022-12-16T18:32:35.434Z,100608.97
2022-12-16T18:35:21.385Z,100614.88
2022-12-16T18:38:07.005Z,100611.06
2022-12-16T18:40:52.664Z,100612.66
2022-12-16T18:43:38.191Z,100621.75
2022-12-16T18:46:23.732Z,100610.66
2022-12-16T18:49:09.463Z,100603.28
2022-12-16T18:51:54.987Z,100606.09
2022-12-16T18:54:40.473Z,100609.03
2022-12-16T18:57:25.775Z,100604.66
2022-12-16T19:00:11.356Z,100601.66
2022-12-16T19:02:57.007Z,100601.00
2022-12-16T19:05:42.303Z,100598.91
2022-12-16T19:08:28.093Z,100594.19
2022-12-16T19:11:17.168Z,100601.03
2022-12-16T19:14:02.911Z,100592.63
2022-12-16T19:16:48.585Z,100592.97
2022-12-16T19:19:34.197Z,100596.78
2022-12-16T19:22:20.036Z,100600.13
2022-12-16T19:25:05.138Z,100596.78
2022-12-16T19:27:50.795Z,100598.84
2022-12-16T19:30:36.195Z,100603.97
2022-12-16T19:33:21.535Z,100612.31
2022-12-16T19:36:07.095Z,100610.00
2022-12-16T19:38:52.821Z,100614.16
2022-12-16T19:41:42.172Z,100623.06
2022-12-16T19:44:27.716Z,100626.59
2022-12-16T19:47:13.173Z,100633.34
2022-12-16T19:49:58.683Z,100624.88
2022-12-16T19:52:44.524Z,100612.84
2022-12-16T19:55:30.170Z,100626.47
2022-12-16T19:58:15.387Z,100617.13
2022-12-16T20:01:05.458Z,100628.03
2022-12-16T20:03:52.338Z,100623.19
2022-12-16T20:06:40.609Z,100624.47
2022-12-16T20:09:25.934Z,100624.94
2022-12-16T20:12:11.469Z,100623.75
2022-12-16T20:14:57.131Z,100630.94
2022-12-16T20:17:42.712Z,100628.53
2022-12-16T20:20:28.755Z,100626.09
2022-12-16T20:23:14.833Z,100618.09
2022-12-16T20:26:00.207Z,100625.59
2022-12-16T20:28:45.816Z,100628.75
2022-12-16T20:31:31.305Z,100626.16
2022-12-16T20:34:16.905Z,100624.97
2022-12-16T20:37:02.568Z,100628.56
2022-12-16T20:39:56.456Z,100640.94
2022-12-16T20:42:43.996Z,100637.53
2022-12-16T20:45:33.421Z,100631.66
2022-12-16T20:48:19.094Z,100641.81
2022-12-16T20:51:18.540Z,100643.78
2022-12-16T20:54:09.742Z,100651.97
2022-12-16T20:56:54.989Z,100639.94
2022-12-16T20:59:41.759Z,100638.22
2022-12-16T21:05:36.650Z,100634.19
2022-12-16T21:08:22.896Z,100636.97
2022-12-16T21:11:08.703Z,100639.16
2022-12-16T21:16:59.690Z,100640.47
2022-12-16T21:19:45.403Z,100645.13
2022-12-16T21:22:31.072Z,100650.56
2022-12-16T21:25:22.779Z,100643.16
2022-12-16T21:28:14.133Z,100634.03
2022-12-16T21:30:59.503Z,100641.47
2022-12-16T21:33:45.494Z,100629.78
2022-12-16T21:36:31.243Z,100630.22
2022-12-16T21:39:16.593Z,100635.78
2022-12-16T21:42:01.647Z,100630.91
2022-12-16T21:44:47.247Z,100632.75
2022-12-16T21:47:32.916Z,100625.94
2022-12-16T21:50:18.378Z,100636.22
2022-12-16T21:53:06.618Z,100629.28
2022-12-16T21:55:52.304Z,100622.16
2022-12-16T21:58:38.938Z,100625.25
2022-12-16T22:01:24.735Z,100628.34
2022-12-16T22:04:14.905Z,100618.88
2022-12-16T22:07:00.388Z,100628.13
2022-12-16T22:09:46.091Z,100618.06
2022-12-16T22:12:32.200Z,100619.56
2022-12-16T22:15:17.890Z,100617.94
2022-12-16T22:18:03.309Z,100616.22
2022-12-16T22:20:48.915Z,100622.94
2022-12-16T22:23:34.532Z,100622.25
2022-12-16T22:26:20.645Z,100626.59
2022-12-16T22:29:06.207Z,100629.44
2022-12-16T22:31:51.968Z,100614.25
2022-12-16T22:34:37.511Z,100622.44
2022-12-16T22:37:23.382Z,100629.38
2022-12-16T22:40:09.001Z,100621.97
2022-12-16T22:42:56.299Z,100620.44
2022-12-16T22:45:41.685Z,100618.25
2022-12-16T22:48:27.068Z,100611.13
2022-12-16T22:51:12.555Z,100609.31
2022-12-16T22:53:58.058Z,100609.38
2022-12-16T22:56:43.582Z,100612.09
2022-12-16T22:59:29.003Z,100602.63
2022-12-16T23:02:14.531Z,100603.03
2022-12-16T23:05:00.115Z,100595.19
2022-12-16T23:07:45.507Z,100592.91
2022-12-16T23:10:31.113Z,100600.53
2022-12-16T23:13:16.813Z,100606.81
2022-12-16T23:16:02.393Z,100604.59
2022-12-16T23:18:48.131Z,100601.81
2022-12-16T23:21:34.743Z,100595.25
2022-12-16T23:24:20.241Z,100600.72
2022-12-16T23:27:05.949Z,100600.59
2022-12-16T23:29:51.435Z,100588.31
2022-12-16T23:32:37.600Z,100584.47
2022-12-16T23:35:23.255Z,100578.91
2022-12-16T23:38:08.501Z,100593.63
2022-12-16T23:40:54.557Z,100588.16
2022-12-16T23:43:42.802Z,100589.97
2022-12-16T23:46:28.423Z,100582.00
2022-12-16T23:49:14.039Z,100591.69
2022-12-16T23:51:59.485Z,100588.47
2022-12-16T23:54:45.014Z,100585.41
2022-12-16T23:57:30.871Z,100587.47
